createdAt,value
2022-08-17T00:00:33.209Z,96794.22
2022-08-17T00:03:04.561Z,96784.50
2022-08-17T00:05:35.554Z,96782.28
2022-08-17T00:08:03.517Z,96784.81
2022-08-17T00:10:33.382Z,96780.44
2022-08-17T00:13:01.568Z,96778.53
2022-08-17T00:15:29.494Z,96780.56
2022-08-17T00:17:57.319Z,96771.44
2022-08-17T00:20:32.074Z,96770.66
2022-08-17T00:23:08.030Z,96773.91
2022-08-17T00:25:37.629Z,96772.81
2022-08-17T00:28:06.229Z,96774.41
2022-08-17T00:30:50.886Z,96775.50
2022-08-17T00:33:24.006Z,96775.50
2022-08-17T00:35:52.643Z,96776.94
2022-08-17T00:38:20.835Z,96786.56
2022-08-17T00:40:51.719Z,96779.22
2022-08-17T00:43:23.257Z,96762.47
2022-08-17T00:45:51.165Z,96774.91
2022-08-17T00:48:29.340Z,96770.19
2022-08-17T00:51:03.190Z,96770.06
2022-08-17T00:53:34.706Z,96768.00
2022-08-17T00:56:08.847Z,96775.72
2022-08-17T00:58:37.807Z,96769.44
2022-08-17T01:01:08.066Z,96765.63
2022-08-17T01:03:37.316Z,96756.50
2022-08-17T01:06:07.251Z,96761.84
2022-08-17T01:08:36.779Z,96764.25
2022-08-17T01:11:07.849Z,96760.16
2022-08-17T01:13:40.967Z,96759.69
2022-08-17T01:16:17.758Z,96761.56
2022-08-17T01:18:48.778Z,96761.06
2022-08-17T01:21:23.565Z,96758.91
2022-08-17T01:23:53.223Z,96757.16
2022-08-17T01:26:21.581Z,96753.38
2022-08-17T01:28:53.902Z,96754.94
2022-08-17T01:31:26.858Z,96759.69
2022-08-17T01:33:54.765Z,96751.66
2022-08-17T01:36:22.949Z,96758.91
2022-08-17T01:38:52.270Z,96759.19
2022-08-17T01:41:23.238Z,96766.44
2022-08-17T01:43:56.525Z,96765.84
2022-08-17T01:46:28.106Z,96755.63
2022-08-17T01:48:58.062Z,96766.31
2022-08-17T01:51:27.518Z,96756.56
2022-08-17T01:54:00.286Z,96759.06
2022-08-17T01:56:31.169Z,96765.34
2022-08-17T01:58:59.042Z,96758.56
2022-08-17T02:01:31.760Z,96756.50
2022-08-17T02:04:01.352Z,96763.44
2022-08-17T02:06:31.660Z,96763.16
2022-08-17T02:09:16.783Z,96759.84
2022-08-17T02:11:46.212Z,96753.38
2022-08-17T02:14:14.991Z,96755.59
2022-08-17T02:16:43.517Z,96766.28
2022-08-17T02:19:13.994Z,96763.13
2022-08-17T02:21:43.363Z,96767.38
2022-08-17T02:24:16.237Z,96766.94
2022-08-17T02:26:44.735Z,96760.63
2022-08-17T02:29:14.939Z,96757.66
2022-08-17T02:31:42.927Z,96752.94
2022-08-17T02:34:11.026Z,96755.28
2022-08-17T02:36:39.249Z,96752.31
2022-08-17T02:39:08.182Z,96741.31
2022-08-17T02:41:38.275Z,96736.28
2022-08-17T02:44:07.194Z,96740.19
2022-08-17T02:46:35.563Z,96747.09
2022-08-17T02:49:03.924Z,96745.69
2022-08-17T02:51:33.729Z,96747.09
2022-08-17T02:54:38.838Z,96743.19
2022-08-17T02:56:51.151Z,96738.16
2022-08-17T02:59:20.089Z,96738.94
2022-08-17T03:01:48.339Z,96736.28
2022-08-17T03:04:16.335Z,96743.50
2022-08-17T03:06:44.185Z,96751.03
2022-08-17T03:09:12.171Z,96752.16
2022-08-17T03:11:40.253Z,96751.22
2022-08-17T03:14:09.555Z,96753.44
2022-08-17T03:16:37.460Z,96748.41
2022-08-17T03:19:07.228Z,96747.16
2022-08-17T03:21:35.135Z,96750.00
2022-08-17T03:24:08.720Z,96744.50
2022-08-17T03:26:37.219Z,96751.75
2022-08-17T03:29:05.301Z,96753.00
2022-08-17T03:31:34.562Z,96755.69
2022-08-17T03:34:05.152Z,96749.56
2022-08-17T03:36:35.897Z,96760.25
2022-08-17T03:39:04.306Z,96754.41
2022-08-17T03:41:32.232Z,96750.97
2022-08-17T03:44:00.378Z,96747.84
2022-08-17T03:46:45.693Z,96747.53
2022-08-17T03:49:32.850Z,96752.88
2022-08-17T03:52:18.137Z,96750.69
2022-08-17T03:55:04.084Z,96748.31
2022-08-17T03:57:33.275Z,96749.09
2022-08-17T04:00:01.603Z,96756.03
2022-08-17T04:02:31.879Z,96755.22
2022-08-17T04:05:01.894Z,96758.22
2022-08-17T04:07:31.150Z,96761.19
2022-08-17T04:09:59.974Z,96757.28
2022-08-17T04:12:31.012Z,96764.97
2022-08-17T04:14:59.489Z,96757.28
2022-08-17T04:17:28.460Z,96764.03
2022-08-17T04:19:57.387Z,96768.44
2022-08-17T04:22:32.024Z,96768.59
2022-08-17T04:25:03.456Z,96762.63
2022-08-17T04:27:31.523Z,96769.38
2022-08-17T04:29:59.650Z,96765.56
2022-08-17T04:33:04.099Z,96758.97
2022-08-17T04:35:19.765Z,96764.00
2022-08-17T04:37:49.038Z,96758.84
2022-08-17T04:40:35.597Z,96760.25
2022-08-17T04:43:05.666Z,96774.84
2022-08-17T04:45:33.666Z,96774.38
2022-08-17T04:48:01.788Z,96764.00
2022-08-17T04:50:29.695Z,96768.56
2022-08-17T04:52:59.432Z,96772.31
2022-08-17T04:55:27.521Z,96770.00
2022-08-17T04:57:55.491Z,96772.31
2022-08-17T05:00:25.944Z,96777.06
2022-08-17T05:02:55.924Z,96773.59
2022-08-17T05:05:26.301Z,96777.06
2022-08-17T05:07:55.467Z,96779.84
2022-08-17T05:10:26.512Z,96784.41
2022-08-17T05:12:59.770Z,96782.69
2022-08-17T05:15:29.058Z,96779.38
2022-08-17T05:18:01.478Z,96787.69
2022-08-17T05:20:31.143Z,96788.63
2022-08-17T05:23:01.804Z,96795.38
2022-08-17T05:25:34.550Z,96792.34
2022-08-17T05:28:07.137Z,96791.09
2022-08-17T05:30:36.817Z,96793.63
2022-08-17T05:33:08.137Z,96798.47
2022-08-17T05:35:38.290Z,96807.00
2022-08-17T05:38:08.089Z,96827.28
2022-08-17T05:40:38.364Z,96837.34
2022-08-17T05:43:08.677Z,96839.84
2022-08-17T05:45:55.448Z,96831.81
2022-08-17T05:48:39.765Z,96842.44
2022-08-17T05:51:43.349Z,96844.44
2022-08-17T05:54:23.050Z,96843.09
2022-08-17T05:57:09.008Z,96847.16
2022-08-17T05:59:48.789Z,96842.19
2022-08-17T06:02:23.599Z,96834.75
2022-08-17T06:05:11.699Z,96837.16
2022-08-17T06:07:49.506Z,96847.56
2022-08-17T06:10:27.433Z,96844.03
2022-08-17T06:13:12.012Z,96844.97
2022-08-17T06:15:55.397Z,96842.00
2022-08-17T06:18:26.842Z,96843.84
2022-08-17T06:20:57.849Z,96845.88
2022-08-17T06:23:31.536Z,96853.00
2022-08-17T06:26:04.933Z,96846.38
2022-08-17T06:28:38.983Z,96845.59
2022-08-17T06:31:14.239Z,96851.69
2022-08-17T06:33:47.657Z,96850.63
2022-08-17T06:36:30.228Z,96851.66
2022-08-17T06:39:10.693Z,96856.38
2022-08-17T06:41:51.117Z,96859.31
2022-08-17T06:44:50.002Z,96857.94
2022-08-17T06:47:27.994Z,96859.03
2022-08-17T06:50:17.000Z,96866.97
2022-08-17T06:52:53.893Z,96869.28
2022-08-17T06:55:28.632Z,96867.72
2022-08-17T06:58:02.154Z,96870.00
2022-08-17T07:00:48.856Z,96869.59
2022-08-17T07:03:33.469Z,96873.75
2022-08-17T07:06:06.580Z,96876.72
2022-08-17T07:08:48.414Z,96876.00
2022-08-17T07:11:19.545Z,96884.09
2022-08-17T07:13:54.164Z,96886.75
2022-08-17T07:16:27.628Z,96893.25
2022-08-17T07:18:57.892Z,96889.72
2022-08-17T07:21:39.724Z,96891.47
2022-08-17T07:24:37.451Z,96892.91
2022-08-17T07:27:08.755Z,96886.34
2022-08-17T07:29:42.112Z,96897.28
2022-08-17T07:32:13.591Z,96884.09
2022-08-17T07:35:04.726Z,96870.88
2022-08-17T07:37:33.490Z,96868.94
2022-08-17T07:40:16.984Z,96868.13
2022-08-17T07:43:03.294Z,96877.25
2022-08-17T07:45:51.906Z,96874.78
2022-08-17T07:48:25.173Z,96865.38
2022-08-17T07:50:54.120Z,96864.81
2022-08-17T07:53:24.212Z,96859.69
2022-08-17T07:55:53.969Z,96867.19
2022-08-17T07:58:23.700Z,96863.84
2022-08-17T08:01:07.976Z,96862.72
2022-08-17T08:03:43.745Z,96864.16
2022-08-17T08:06:21.109Z,96862.50
2022-08-17T08:08:52.972Z,96868.56
2022-08-17T08:11:31.483Z,96865.22
2022-08-17T08:14:21.744Z,96860.09
2022-08-17T08:17:02.004Z,96866.63
2022-08-17T08:19:33.508Z,96872.78
2022-08-17T08:22:11.128Z,96881.41
2022-08-17T08:24:53.512Z,96872.63
2022-08-17T08:27:32.026Z,96872.84
2022-08-17T08:30:07.919Z,96880.53
2022-08-17T08:32:50.231Z,96873.13
2022-08-17T08:35:28.127Z,96869.81
2022-08-17T08:38:07.782Z,96873.94
2022-08-17T08:40:50.813Z,96880.66
2022-08-17T08:43:28.143Z,96873.06
2022-08-17T08:46:06.037Z,96877.28
2022-08-17T08:48:58.721Z,96876.19
2022-08-17T08:51:40.025Z,96885.59
2022-08-17T08:54:33.565Z,96883.50
2022-08-17T08:57:24.330Z,96892.31
2022-08-17T09:00:12.826Z,96893.34
2022-08-17T09:03:19.339Z,96884.34
2022-08-17T09:06:04.028Z,96893.63
2022-08-17T09:08:45.210Z,96902.53
2022-08-17T09:11:21.504Z,96901.63
2022-08-17T09:14:00.698Z,96904.06
2022-08-17T09:16:33.393Z,96890.34
2022-08-17T09:19:07.221Z,96899.75
2022-08-17T09:21:48.241Z,96888.84
2022-08-17T09:24:25.201Z,96892.22
2022-08-17T09:27:00.039Z,96894.09
2022-08-17T09:29:32.607Z,96896.69
2022-08-17T09:32:03.965Z,96906.09
2022-08-17T09:34:36.173Z,96909.53
2022-08-17T09:37:15.758Z,96906.63
2022-08-17T09:39:54.226Z,96916.75
2022-08-17T09:42:27.954Z,96920.19
2022-08-17T09:45:04.213Z,96927.22
2022-08-17T09:47:46.167Z,96933.34
2022-08-17T09:51:03.663Z,96929.56
2022-08-17T09:53:10.230Z,96930.44
2022-08-17T09:56:07.680Z,96935.25
2022-08-17T09:58:48.990Z,96931.88
2022-08-17T10:01:29.226Z,96931.47
2022-08-17T10:04:20.335Z,96928.88
2022-08-17T10:06:59.478Z,96932.38
2022-08-17T10:09:41.250Z,96955.31
2022-08-17T10:12:30.113Z,96952.50
2022-08-17T10:15:23.137Z,96952.09
2022-08-17T10:18:08.562Z,96931.84
2022-08-17T10:20:47.664Z,96933.84
2022-08-17T10:23:36.856Z,96919.03
2022-08-17T10:26:16.888Z,96926.88
2022-08-17T10:28:52.626Z,96944.75
2022-08-17T10:31:35.912Z,96948.22
2022-08-17T10:34:41.963Z,96933.81
2022-08-17T10:37:38.257Z,96933.41
2022-08-17T10:40:34.201Z,96932.94
2022-08-17T10:43:18.845Z,96932.16
2022-08-17T10:46:14.555Z,96940.44
2022-08-17T10:48:44.282Z,96959.50
2022-08-17T10:51:38.119Z,96945.84
2022-08-17T10:54:07.153Z,96954.34
2022-08-17T10:56:50.587Z,96965.94
2022-08-17T10:59:50.530Z,96962.91
2022-08-17T11:02:28.185Z,96977.94
2022-08-17T11:05:13.785Z,96965.28
2022-08-17T11:07:58.867Z,96974.16
2022-08-17T11:10:53.282Z,96972.19
2022-08-17T11:13:35.871Z,96972.56
2022-08-17T11:16:23.860Z,96981.25
2022-08-17T11:19:13.183Z,96992.06
2022-08-17T11:21:59.156Z,96983.44
2022-08-17T11:24:36.288Z,96986.41
2022-08-17T11:27:12.061Z,96995.16
2022-08-17T11:29:53.686Z,96984.22
2022-08-17T11:32:47.173Z,96982.72
2022-08-17T11:35:37.103Z,96978.59
2022-08-17T11:38:25.546Z,96993.94
2022-08-17T11:41:20.085Z,96991.16
2022-08-17T11:44:18.533Z,97000.44
2022-08-17T11:47:20.408Z,97001.50
2022-08-17T11:50:27.106Z,96999.94
2022-08-17T11:52:57.317Z,97008.84
2022-08-17T11:56:03.334Z,97022.34
2022-08-17T11:58:38.603Z,97024.50
2022-08-17T12:01:07.871Z,97033.16
2022-08-17T12:03:54.321Z,97033.13
2022-08-17T12:06:42.578Z,97034.84
2022-08-17T12:09:17.446Z,97027.94
2022-08-17T12:12:01.542Z,97030.53
2022-08-17T12:15:08.997Z,97027.16
2022-08-17T12:17:40.739Z,97023.34
2022-08-17T12:20:16.485Z,97006.84
2022-08-17T12:22:49.565Z,97006.44
2022-08-17T12:25:24.779Z,97008.41
2022-08-17T12:28:05.469Z,97009.72
2022-08-17T12:30:36.109Z,97018.66
2022-08-17T12:33:04.162Z,97019.91
2022-08-17T12:35:35.224Z,97012.53
2022-08-17T12:38:06.682Z,97020.50
2022-08-17T12:40:59.681Z,96999.59
2022-08-17T12:43:31.268Z,97011.81
2022-08-17T12:46:12.971Z,97017.19
2022-08-17T12:48:54.975Z,97012.91
2022-08-17T12:51:29.434Z,97016.78
2022-08-17T12:53:57.727Z,97011.25
2022-08-17T12:56:27.463Z,97012.00
2022-08-17T12:58:56.742Z,97010.56
2022-08-17T13:01:25.354Z,96997.75
2022-08-17T13:03:59.819Z,96998.31
2022-08-17T13:06:32.217Z,96991.97
2022-08-17T13:09:11.270Z,96987.25
2022-08-17T13:11:49.034Z,96974.28
2022-08-17T13:14:18.509Z,96977.88
2022-08-17T13:16:53.582Z,96968.72
2022-08-17T13:19:29.907Z,96968.63
2022-08-17T13:22:12.879Z,96956.66
2022-08-17T13:24:54.431Z,96943.13
2022-08-17T13:27:26.956Z,96939.28
2022-08-17T13:29:59.666Z,96942.97
2022-08-17T13:32:44.149Z,96935.72
2022-08-17T13:38:51.127Z,96922.97
2022-08-17T13:41:31.314Z,96921.03
2022-08-17T13:43:59.341Z,96913.25
2022-08-17T13:46:31.515Z,96915.50
2022-08-17T13:49:02.676Z,96921.72
2022-08-17T13:51:43.404Z,96915.84
2022-08-17T13:54:27.662Z,96905.81
2022-08-17T13:57:01.732Z,96905.88
2022-08-17T13:59:54.688Z,96898.84
2022-08-17T14:02:27.217Z,96889.72
2022-08-17T14:04:57.465Z,96894.25
2022-08-17T14:07:30.361Z,96890.88
2022-08-17T14:10:04.254Z,96884.78
2022-08-17T14:12:34.523Z,96890.28
2022-08-17T14:15:03.451Z,96881.75
2022-08-17T14:17:36.346Z,96880.22
2022-08-17T14:20:07.723Z,96881.78
2022-08-17T14:22:38.676Z,96868.94
2022-08-17T14:25:10.723Z,96863.50
2022-08-17T14:27:53.268Z,96855.75
2022-08-17T14:30:24.616Z,96854.91
2022-08-17T14:32:53.815Z,96855.53
2022-08-17T14:35:24.006Z,96844.91
2022-08-17T14:37:53.427Z,96842.59
2022-08-17T14:40:25.564Z,96841.97
2022-08-17T14:42:55.233Z,96841.88
2022-08-17T14:45:30.250Z,96830.09
2022-08-17T14:48:01.335Z,96830.84
2022-08-17T14:50:29.272Z,96847.97
2022-08-17T14:52:58.176Z,96830.88
2022-08-17T14:55:29.248Z,96842.09
2022-08-17T14:57:57.487Z,96835.00
2022-08-17T15:00:26.173Z,96841.22
2022-08-17T15:02:56.546Z,96837.88
2022-08-17T15:05:27.663Z,96835.91
2022-08-17T15:07:55.829Z,96842.28
2022-08-17T15:10:25.877Z,96842.81
2022-08-17T15:12:55.435Z,96843.72
2022-08-17T15:15:24.013Z,96838.41
2022-08-17T15:17:52.331Z,96843.59
2022-08-17T15:20:24.884Z,96845.97
2022-08-17T15:22:55.176Z,96843.66
2022-08-17T15:25:24.333Z,96844.41
2022-08-17T15:27:52.531Z,96841.34
2022-08-17T15:30:22.490Z,96843.66
2022-08-17T15:32:54.151Z,96843.72
2022-08-17T15:35:27.548Z,96839.81
2022-08-17T15:37:58.477Z,96840.56
2022-08-17T15:40:26.747Z,96845.91
2022-08-17T15:42:55.164Z,96844.31
2022-08-17T15:45:28.436Z,96846.63
2022-08-17T15:47:56.338Z,96838.47
2022-08-17T15:50:24.211Z,96824.47
2022-08-17T15:52:59.753Z,96828.66
2022-08-17T15:55:29.654Z,96821.59
2022-08-17T15:57:57.691Z,96830.47
2022-08-17T16:00:28.615Z,96833.50
2022-08-17T16:03:45.181Z,96834.66
2022-08-17T16:05:46.224Z,96843.44
2022-08-17T16:08:20.042Z,96846.16
2022-08-17T16:10:48.866Z,96838.69
2022-08-17T16:13:17.994Z,96832.78
2022-08-17T16:15:57.045Z,96837.38
2022-08-17T16:18:31.178Z,96838.41
2022-08-17T16:21:21.663Z,96829.50
2022-08-17T16:23:51.461Z,96829.50
2022-08-17T16:26:19.955Z,96820.22
2022-08-17T16:28:47.883Z,96817.88
2022-08-17T16:31:17.896Z,96824.03
2022-08-17T16:34:15.966Z,96822.47
2022-08-17T16:36:36.114Z,96815.50
2022-08-17T16:39:04.864Z,96818.47
2022-08-17T16:41:45.525Z,96819.53
2022-08-17T16:44:15.468Z,96817.53
2022-08-17T16:46:50.541Z,96814.31
2022-08-17T16:49:36.039Z,96818.47
2022-08-17T16:52:06.217Z,96817.94
2022-08-17T16:54:36.918Z,96808.59
2022-08-17T16:57:11.477Z,96810.38
2022-08-17T16:59:43.569Z,96815.38
2022-08-17T17:02:17.205Z,96813.06
2022-08-17T17:04:53.391Z,96814.19
2022-08-17T17:07:51.142Z,96829.19
2022-08-17T17:10:24.906Z,96819.88
2022-08-17T17:13:02.397Z,96824.94
2022-08-17T17:15:44.203Z,96819.81
2022-08-17T17:18:17.491Z,96825.84
2022-08-17T17:20:56.412Z,96817.97
2022-08-17T17:23:48.712Z,96814.75
2022-08-17T17:26:34.230Z,96814.22
2022-08-17T17:29:16.364Z,96811.41
2022-08-17T17:31:57.221Z,96808.97
2022-08-17T17:34:30.854Z,96808.44
2022-08-17T17:37:05.516Z,96807.88
2022-08-17T17:39:43.894Z,96803.91
2022-08-17T17:42:19.886Z,96796.81
2022-08-17T17:45:09.278Z,96802.13
2022-08-17T17:47:39.701Z,96796.63
2022-08-17T17:50:10.379Z,96794.50
2022-08-17T17:52:49.001Z,96790.81
2022-08-17T17:55:37.905Z,96789.44
2022-08-17T17:58:28.078Z,96794.28
2022-08-17T18:01:13.819Z,96804.19
2022-08-17T18:03:58.432Z,96800.91
2022-08-17T18:06:41.541Z,96798.00
2022-08-17T18:09:20.793Z,96796.66
2022-08-17T18:12:35.734Z,96787.19
2022-08-17T18:15:24.319Z,96786.19
2022-08-17T18:18:38.921Z,96789.03
2022-08-17T18:21:29.588Z,96785.78
2022-08-17T18:24:06.018Z,96791.72
2022-08-17T18:27:08.754Z,96806.16
2022-08-17T18:29:45.590Z,96798.59
2022-08-17T18:32:33.649Z,96801.13
2022-08-17T18:35:27.891Z,96796.28
2022-08-17T18:38:00.322Z,96793.41
2022-08-17T18:40:34.649Z,96794.38
2022-08-17T18:43:15.221Z,96802.72
2022-08-17T18:45:49.579Z,96806.78
2022-08-17T18:48:25.805Z,96800.91
2022-08-17T18:50:57.623Z,96803.06
2022-08-17T18:53:34.150Z,96809.38
2022-08-17T18:56:30.777Z,96804.16
2022-08-17T18:59:21.506Z,96801.72
2022-08-17T19:02:15.505Z,96810.84
2022-08-17T19:05:01.060Z,96804.47
2022-08-17T19:07:32.659Z,96806.72
2022-08-17T19:10:11.332Z,96816.97
2022-08-17T19:12:46.628Z,96811.84
2022-08-17T19:15:18.851Z,96812.88
2022-08-17T19:17:53.080Z,96814.69
2022-08-17T19:20:29.009Z,96821.44
2022-08-17T19:23:06.378Z,96821.31
2022-08-17T19:25:40.251Z,96810.16
2022-08-17T19:28:21.751Z,96810.47
2022-08-17T19:30:55.944Z,96814.28
2022-08-17T19:33:24.225Z,96807.34
2022-08-17T19:36:02.566Z,96805.78
2022-08-17T19:38:41.512Z,96810.28
2022-08-17T19:41:17.498Z,96807.94
2022-08-17T19:43:57.561Z,96820.25
2022-08-17T19:46:35.819Z,96812.09
2022-08-17T19:49:08.882Z,96810.84
2022-08-17T19:51:43.319Z,96809.53
2022-08-17T19:54:16.379Z,96810.19
2022-08-17T19:56:51.704Z,96816.59
2022-08-17T19:59:35.636Z,96813.34
2022-08-17T20:02:18.370Z,96820.88
2022-08-17T20:04:50.818Z,96811.94
2022-08-17T20:07:23.460Z,96811.47
2022-08-17T20:09:57.770Z,96819.09
2022-08-17T20:12:31.824Z,96816.75
2022-08-17T20:15:06.238Z,96814.75
2022-08-17T20:17:37.318Z,96815.41
2022-08-17T20:20:20.257Z,96823.38
2022-08-17T20:22:55.271Z,96821.72
2022-08-17T20:25:32.319Z,96824.59
2022-08-17T20:28:06.234Z,96826.09
2022-08-17T20:30:39.462Z,96826.41
2022-08-17T20:33:12.422Z,96825.94
2022-08-17T20:36:00.492Z,96824.28
2022-08-17T20:38:41.675Z,96837.38
2022-08-17T20:41:14.290Z,96835.34
2022-08-17T20:44:02.117Z,96844.88
2022-08-17T20:47:04.615Z,96841.41
2022-08-17T20:49:54.237Z,96839.41
2022-08-17T20:52:53.002Z,96838.81
2022-08-17T20:55:55.827Z,96835.25
2022-08-17T20:58:50.056Z,96832.00
2022-08-17T21:01:38.975Z,96840.72
2022-08-17T21:04:30.165Z,96841.84
2022-08-17T21:07:29.316Z,96842.72
2022-08-17T21:10:12.058Z,96840.25
2022-08-17T21:12:43.227Z,96844.03
2022-08-17T21:15:36.247Z,96841.25
2022-08-17T21:18:14.726Z,96844.25
2022-08-17T21:21:00.974Z,96848.06
2022-08-17T21:23:45.549Z,96855.00
2022-08-17T21:26:30.126Z,96852.31
2022-08-17T21:29:31.358Z,96856.56
2022-08-17T21:32:24.522Z,96858.16
2022-08-17T21:35:27.276Z,96857.34
2022-08-17T21:37:59.843Z,96860.81
2022-08-17T21:40:31.497Z,96856.56
2022-08-17T21:43:05.105Z,96860.50
2022-08-17T21:45:37.584Z,96857.03
2022-08-17T21:48:13.549Z,96857.47
2022-08-17T21:50:43.919Z,96867.09
2022-08-17T21:53:23.004Z,96870.88
2022-08-17T21:55:53.511Z,96868.53
2022-08-17T21:58:31.077Z,96877.34
2022-08-17T22:01:20.738Z,96875.81
2022-08-17T22:03:56.947Z,96887.19
2022-08-17T22:06:28.437Z,96890.19
2022-08-17T22:09:11.601Z,96891.78
2022-08-17T22:11:58.184Z,96878.69
2022-08-17T22:14:52.798Z,96882.50
2022-08-17T22:17:20.624Z,96882.50
2022-08-17T22:19:51.637Z,96890.88
2022-08-17T22:22:32.602Z,96888.53
2022-08-17T22:25:03.010Z,96882.50
2022-08-17T22:27:51.668Z,96885.97
2022-08-17T22:30:33.670Z,96894.78
2022-08-17T22:33:03.012Z,96896.34
2022-08-17T22:35:37.998Z,96896.34
2022-08-17T22:38:32.288Z,96895.56
2022-08-17T22:41:26.035Z,96890.19
2022-08-17T22:43:58.646Z,96891.78
2022-08-17T22:46:32.023Z,96893.66
2022-08-17T22:49:02.066Z,96897.94
2022-08-17T22:51:32.884Z,96905.19
2022-08-17T22:54:31.381Z,96906.44
2022-08-17T22:57:20.351Z,96907.09
2022-08-17T22:59:53.108Z,96912.44
2022-08-17T23:02:24.858Z,96923.97
2022-08-17T23:04:55.868Z,96925.88
2022-08-17T23:07:23.960Z,96932.13
2022-08-17T23:09:52.466Z,96952.66
2022-08-17T23:12:27.487Z,96993.69
2022-08-17T23:15:02.128Z,96993.53
2022-08-17T23:17:36.911Z,97004.97
2022-08-17T23:20:08.477Z,97010.53
2022-08-17T23:22:44.689Z,97013.13
2022-08-17T23:25:28.164Z,97017.13
2022-08-17T23:27:57.436Z,97022.22
2022-08-17T23:30:28.717Z,97024.72
2022-08-17T23:32:58.690Z,97032.00
2022-08-17T23:35:39.824Z,97040.34
2022-08-17T23:38:09.788Z,97052.22
2022-08-17T23:40:39.281Z,97059.22
2022-08-17T23:43:23.665Z,97058.94
2022-08-17T23:45:56.634Z,97059.84
2022-08-17T23:48:32.688Z,97057.66
2022-08-17T23:51:09.151Z,97063.75
2022-08-17T23:53:38.161Z,97063.09
2022-08-17T23:56:10.072Z,97055.06
2022-08-17T23:58:39.682Z,97059.72
